AUA3012 HECA-LOWW
Flight info
| Callsign | AUA3012 |
|---|---|
| Flight time | 3h 11m |
| Altitude | 36000 |
| Route | MENKU L617 NOZ L551 ANTAR UN133 RIGRO/N0442F380 UN133 PEREN UL863 EVIVI L863 OKANA DCT PARAK DCT BALUX DCT TORNO DCT NATEX NATEX2W |
| Aircraft | A320/M-SDE3FGHIRWY/LB1 |
Departure
| Time | 2026-04-21 18:12 |
|---|---|
| Airport | Cairo International Airport (HECA) |
Arrival
| Time | 2026-04-21 21:23 |
|---|---|
| Airport | Vienna International Airport (LOWW) |
| Time | Latitude | Longitude | Altitude | Speed | Heading |
|---|---|---|---|---|---|
| 2026-04-21 17:41 | 30.11158 | 31.40408 | 374 ft | 0 kts | 251° |
| 2026-04-21 17:59 | 30.11159 | 31.40412 | 374 ft | 3 kts | 251° |
| 2026-04-21 17:59 | 30.11167 | 31.40437 | 374 ft | 4 kts | 239° |
| 2026-04-21 17:59 | 30.11183 | 31.40454 | 374 ft | 4 kts | 180° |
| 2026-04-21 17:59 | 30.11208 | 31.40446 | 374 ft | 4 kts | 148° |
| 2026-04-21 18:00 | 30.11226 | 31.40432 | 374 ft | 0 kts | 139° |
| 2026-04-21 18:02 | 30.11208 | 31.40449 | 374 ft | 11 kts | 139° |
| 2026-04-21 18:02 | 30.11138 | 31.40518 | 374 ft | 13 kts | 139° |
| 2026-04-21 18:02 | 30.11073 | 31.40582 | 374 ft | 11 kts | 139° |
| 2026-04-21 18:03 | 30.11009 | 31.40625 | 374 ft | 11 kts | 180° |
| 2026-04-21 18:03 | 30.10952 | 31.40579 | 374 ft | 11 kts | 229° |
| 2026-04-21 18:03 | 30.10889 | 31.40494 | 374 ft | 17 kts | 229° |
| 2026-04-21 18:03 | 30.10814 | 31.40394 | 374 ft | 16 kts | 228° |
| 2026-04-21 18:04 | 30.10741 | 31.40310 | 374 ft | 14 kts | 204° |
| 2026-04-21 18:04 | 30.10656 | 31.40323 | 374 ft | 12 kts | 188° |
| 2026-04-21 18:04 | 30.10598 | 31.40268 | 374 ft | 13 kts | 229° |
| 2026-04-21 18:04 | 30.10529 | 31.40176 | 374 ft | 15 kts | 229° |
| 2026-04-21 18:05 | 30.10448 | 31.40125 | 374 ft | 13 kts | 176° |
| 2026-04-21 18:05 | 30.10381 | 31.40172 | 374 ft | 6 kts | 139° |
| 2026-04-21 18:05 | 30.10378 | 31.40175 | 374 ft | 0 kts | 139° |
| 2026-04-21 18:07 | 30.10378 | 31.40174 | 374 ft | 0 kts | 139° |
| 2026-04-21 18:07 | 30.10354 | 31.40198 | 374 ft | 13 kts | 139° |
| 2026-04-21 18:07 | 30.10241 | 31.40309 | 374 ft | 26 kts | 140° |
| 2026-04-21 18:08 | 30.10099 | 31.40449 | 374 ft | 27 kts | 139° |
| 2026-04-21 18:08 | 30.09963 | 31.40585 | 374 ft | 26 kts | 139° |
| 2026-04-21 18:08 | 30.09825 | 31.40722 | 374 ft | 24 kts | 139° |
| 2026-04-21 18:08 | 30.09792 | 31.40877 | 374 ft | 21 kts | 80° |
| 2026-04-21 18:09 | 30.09821 | 31.41049 | 374 ft | 23 kts | 79° |
| 2026-04-21 18:09 | 30.09852 | 31.41232 | 374 ft | 24 kts | 79° |
| 2026-04-21 18:09 | 30.09874 | 31.41358 | 374 ft | 25 kts | 79° |
| 2026-04-21 18:09 | 30.09916 | 31.41617 | 374 ft | 19 kts | 78° |
| 2026-04-21 18:10 | 30.09906 | 31.41726 | 374 ft | 13 kts | 120° |
| 2026-04-21 18:10 | 30.09838 | 31.41800 | 374 ft | 16 kts | 141° |
| 2026-04-21 18:10 | 30.09762 | 31.41888 | 373 ft | 15 kts | 117° |
| 2026-04-21 18:10 | 30.09785 | 31.41999 | 370 ft | 17 kts | 47° |
| 2026-04-21 18:11 | 30.09908 | 31.42162 | 373 ft | 54 kts | 49° |
| 2026-04-21 18:11 | 30.10306 | 31.42692 | 376 ft | 118 kts | 49° |
| 2026-04-21 18:11 | 30.10964 | 31.43562 | 374 ft | 167 kts | 49° |
| 2026-04-21 18:11 | 30.11760 | 31.44619 | 841 ft | 174 kts | 46° |
| 2026-04-21 18:12 | 30.12551 | 31.45673 | 1570 ft | 173 kts | 45° |
| 2026-04-21 18:12 | 30.13371 | 31.46736 | 2080 ft | 185 kts | 45° |
| 2026-04-21 18:12 | 30.14425 | 31.47639 | 2505 ft | 199 kts | 21° |
| 2026-04-21 18:12 | 30.15834 | 31.47708 | 3008 ft | 213 kts | 343° |
| 2026-04-21 18:13 | 30.17103 | 31.46712 | 3393 ft | 235 kts | 316° |
| 2026-04-21 18:13 | 30.18280 | 31.45274 | 3871 ft | 254 kts | 314° |
| 2026-04-21 18:13 | 30.19487 | 31.43738 | 4666 ft | 261 kts | 313° |
| 2026-04-21 18:13 | 30.20711 | 31.42168 | 5498 ft | 265 kts | 313° |
| 2026-04-21 18:14 | 30.23218 | 31.39004 | 7294 ft | 267 kts | 314° |
| 2026-04-21 18:14 | 30.24499 | 31.37437 | 8176 ft | 268 kts | 314° |
| 2026-04-21 18:14 | 30.25793 | 31.35860 | 8937 ft | 274 kts | 314° |
| 2026-04-21 18:15 | 30.27116 | 31.34210 | 9505 ft | 283 kts | 313° |
| 2026-04-21 18:15 | 30.28451 | 31.32509 | 10282 ft | 287 kts | 313° |
| 2026-04-21 18:15 | 30.29847 | 31.30727 | 10555 ft | 310 kts | 312° |
| 2026-04-21 18:15 | 30.31343 | 31.28828 | 10921 ft | 326 kts | 313° |
| 2026-04-21 18:16 | 30.32884 | 31.26884 | 11011 ft | 328 kts | 313° |
| 2026-04-21 18:16 | 30.34433 | 31.24937 | 11025 ft | 328 kts | 313° |
| 2026-04-21 18:16 | 30.35978 | 31.22999 | 11026 ft | 328 kts | 313° |
| 2026-04-21 18:16 | 30.37532 | 31.21055 | 11262 ft | 331 kts | 313° |
| 2026-04-21 18:17 | 30.39100 | 31.19094 | 12074 ft | 333 kts | 313° |
| 2026-04-21 18:17 | 30.40678 | 31.17117 | 12862 ft | 334 kts | 312° |
| 2026-04-21 18:17 | 30.42258 | 31.15133 | 13584 ft | 337 kts | 312° |
| 2026-04-21 18:17 | 30.43853 | 31.13128 | 14289 ft | 339 kts | 312° |
| 2026-04-21 18:18 | 30.45456 | 31.11113 | 14975 ft | 341 kts | 312° |
| 2026-04-21 18:18 | 30.47070 | 31.09078 | 15655 ft | 343 kts | 311° |
| 2026-04-21 18:18 | 30.48690 | 31.07036 | 16295 ft | 346 kts | 311° |
| 2026-04-21 18:18 | 30.50328 | 31.04976 | 16936 ft | 348 kts | 311° |
| 2026-04-21 18:19 | 30.51974 | 31.02906 | 17563 ft | 350 kts | 311° |
| 2026-04-21 18:19 | 30.53629 | 31.00822 | 18163 ft | 352 kts | 311° |
| 2026-04-21 18:19 | 30.55366 | 30.98800 | 18742 ft | 356 kts | 315° |
| 2026-04-21 18:19 | 30.57185 | 30.96845 | 19311 ft | 358 kts | 316° |
| 2026-04-21 18:20 | 30.59022 | 30.94930 | 19862 ft | 361 kts | 316° |
| 2026-04-21 18:20 | 30.60908 | 30.92988 | 20397 ft | 364 kts | 316° |
| 2026-04-21 18:20 | 30.62805 | 30.91037 | 20936 ft | 367 kts | 316° |
| 2026-04-21 18:20 | 30.64718 | 30.89056 | 21462 ft | 369 kts | 316° |
| 2026-04-21 18:21 | 30.66638 | 30.87056 | 21991 ft | 372 kts | 316° |
| 2026-04-21 18:21 | 30.68565 | 30.85039 | 22488 ft | 374 kts | 315° |
| 2026-04-21 18:21 | 30.70505 | 30.83003 | 22983 ft | 377 kts | 315° |
| 2026-04-21 18:21 | 30.72453 | 30.80953 | 23460 ft | 379 kts | 315° |
| 2026-04-21 18:22 | 30.74415 | 30.78889 | 23917 ft | 382 kts | 315° |
| 2026-04-21 18:22 | 30.76391 | 30.76814 | 24365 ft | 384 kts | 315° |
| 2026-04-21 18:22 | 30.78375 | 30.74729 | 24798 ft | 386 kts | 315° |
| 2026-04-21 18:22 | 30.80374 | 30.72624 | 25216 ft | 388 kts | 315° |
| 2026-04-21 18:23 | 30.82379 | 30.70511 | 25626 ft | 390 kts | 314° |
| 2026-04-21 18:23 | 30.84392 | 30.68386 | 26010 ft | 392 kts | 314° |
| 2026-04-21 18:23 | 30.86419 | 30.66249 | 26394 ft | 394 kts | 314° |
| 2026-04-21 18:23 | 30.88456 | 30.64102 | 26758 ft | 396 kts | 314° |
| 2026-04-21 18:24 | 30.90502 | 30.61947 | 27127 ft | 397 kts | 314° |
| 2026-04-21 18:24 | 30.92557 | 30.59781 | 27463 ft | 400 kts | 314° |
| 2026-04-21 18:24 | 30.94618 | 30.57605 | 27834 ft | 401 kts | 314° |
| 2026-04-21 18:24 | 30.96686 | 30.55416 | 28185 ft | 402 kts | 314° |
| 2026-04-21 18:25 | 30.98759 | 30.53217 | 28508 ft | 404 kts | 314° |
| 2026-04-21 18:25 | 31.00843 | 30.51012 | 28820 ft | 406 kts | 313° |
| 2026-04-21 18:25 | 31.02935 | 30.48799 | 29134 ft | 407 kts | 313° |
| 2026-04-21 18:25 | 31.05039 | 30.46570 | 29423 ft | 409 kts | 313° |
| 2026-04-21 18:26 | 31.07142 | 30.44340 | 29717 ft | 410 kts | 313° |
| 2026-04-21 18:26 | 31.08543 | 30.42854 | 29897 ft | 411 kts | 313° |
| 2026-04-21 18:26 | 31.10663 | 30.40604 | 30174 ft | 413 kts | 313° |
| 2026-04-21 18:26 | 31.12790 | 30.38346 | 30443 ft | 414 kts | 313° |
| 2026-04-21 18:27 | 31.14923 | 30.36082 | 30699 ft | 416 kts | 313° |
| 2026-04-21 18:27 | 31.17067 | 30.33803 | 30939 ft | 417 kts | 313° |
| 2026-04-21 18:27 | 31.19214 | 30.31519 | 31185 ft | 418 kts | 313° |
| 2026-04-21 18:27 | 31.21367 | 30.29222 | 31463 ft | 418 kts | 313° |
| 2026-04-21 18:28 | 31.23507 | 30.26930 | 31782 ft | 417 kts | 313° |
| 2026-04-21 18:28 | 31.25645 | 30.24640 | 32123 ft | 416 kts | 313° |
| 2026-04-21 18:28 | 31.27776 | 30.22358 | 32436 ft | 415 kts | 313° |
| 2026-04-21 18:28 | 31.29904 | 30.20082 | 32749 ft | 414 kts | 312° |
| 2026-04-21 18:29 | 31.32024 | 30.17812 | 33048 ft | 413 kts | 312° |
| 2026-04-21 18:29 | 31.34138 | 30.15546 | 33351 ft | 412 kts | 312° |
| 2026-04-21 18:29 | 31.36249 | 30.13277 | 33646 ft | 411 kts | 312° |
| 2026-04-21 18:29 | 31.38069 | 30.11321 | 33900 ft | 411 kts | 312° |
| 2026-04-21 18:30 | 31.40173 | 30.09062 | 34187 ft | 410 kts | 312° |
| 2026-04-21 18:30 | 31.42272 | 30.06803 | 34442 ft | 409 kts | 312° |
| 2026-04-21 18:30 | 31.44364 | 30.04549 | 34735 ft | 408 kts | 312° |
| 2026-04-21 18:30 | 31.46448 | 30.02301 | 35004 ft | 407 kts | 312° |
| 2026-04-21 18:31 | 31.48530 | 30.00050 | 35237 ft | 407 kts | 311° |
| 2026-04-21 18:31 | 31.50608 | 29.97801 | 35462 ft | 407 kts | 311° |
| 2026-04-21 18:31 | 31.52686 | 29.95551 | 35677 ft | 406 kts | 311° |
| 2026-04-21 18:31 | 31.54758 | 29.93313 | 35896 ft | 405 kts | 311° |
| 2026-04-21 18:32 | 31.56834 | 29.91075 | 36026 ft | 405 kts | 311° |
| 2026-04-21 18:32 | 31.60961 | 29.86608 | 36052 ft | 407 kts | 311° |
| 2026-04-21 18:33 | 31.65163 | 29.82042 | 36054 ft | 415 kts | 311° |
| 2026-04-21 18:33 | 31.69438 | 29.77400 | 36051 ft | 421 kts | 311° |
| 2026-04-21 18:34 | 31.73739 | 29.72730 | 36050 ft | 426 kts | 311° |
| 2026-04-21 18:34 | 31.78103 | 29.67991 | 36055 ft | 428 kts | 311° |
| 2026-04-21 18:35 | 31.81764 | 29.64005 | 36058 ft | 428 kts | 311° |
| 2026-04-21 18:35 | 31.86831 | 29.58472 | 36058 ft | 428 kts | 311° |
| 2026-04-21 18:36 | 31.91202 | 29.53703 | 36059 ft | 428 kts | 311° |
| 2026-04-21 18:36 | 31.95563 | 29.48933 | 36062 ft | 428 kts | 311° |
| 2026-04-21 18:37 | 31.99980 | 29.44206 | 36059 ft | 433 kts | 317° |
| 2026-04-21 18:37 | 32.05245 | 29.40587 | 36068 ft | 440 kts | 325° |
| 2026-04-21 18:38 | 32.10643 | 29.37159 | 36070 ft | 441 kts | 326° |
| 2026-04-21 18:38 | 32.16041 | 29.33719 | 36074 ft | 441 kts | 325° |
| 2026-04-21 18:39 | 32.21432 | 29.30270 | 36061 ft | 440 kts | 325° |
| 2026-04-21 18:39 | 32.26817 | 29.26816 | 36063 ft | 440 kts | 325° |
| 2026-04-21 18:40 | 32.32197 | 29.23365 | 36063 ft | 440 kts | 326° |
| 2026-04-21 18:40 | 32.36664 | 29.20498 | 36065 ft | 440 kts | 326° |
| 2026-04-21 18:41 | 32.42953 | 29.16457 | 36064 ft | 440 kts | 326° |
| 2026-04-21 18:41 | 32.48339 | 29.12984 | 36075 ft | 441 kts | 326° |
| 2026-04-21 18:42 | 32.53736 | 29.09509 | 36073 ft | 442 kts | 326° |
| 2026-04-21 18:42 | 32.59134 | 29.06026 | 36078 ft | 442 kts | 326° |
| 2026-04-21 18:43 | 32.64499 | 29.02548 | 36083 ft | 442 kts | 326° |
| 2026-04-21 18:43 | 32.69926 | 28.99026 | 36084 ft | 442 kts | 326° |
| 2026-04-21 18:44 | 32.75327 | 28.95531 | 36084 ft | 442 kts | 326° |
| 2026-04-21 18:44 | 32.80689 | 28.92052 | 36080 ft | 442 kts | 326° |
| 2026-04-21 18:45 | 32.86125 | 28.88528 | 36080 ft | 442 kts | 326° |
| 2026-04-21 18:45 | 32.91478 | 28.85045 | 36080 ft | 441 kts | 326° |
| 2026-04-21 18:46 | 32.96864 | 28.81531 | 36080 ft | 442 kts | 326° |
| 2026-04-21 18:46 | 33.02251 | 28.78012 | 36076 ft | 441 kts | 326° |
| 2026-04-21 18:47 | 33.07630 | 28.74484 | 36077 ft | 441 kts | 326° |
| 2026-04-21 18:47 | 33.13004 | 28.70954 | 36077 ft | 441 kts | 326° |
| 2026-04-21 18:48 | 33.18387 | 28.67431 | 36076 ft | 441 kts | 326° |
| 2026-04-21 18:48 | 33.23760 | 28.63911 | 36074 ft | 440 kts | 326° |
| 2026-04-21 18:49 | 33.29134 | 28.60387 | 36075 ft | 440 kts | 326° |
| 2026-04-21 18:49 | 33.33595 | 28.57448 | 36075 ft | 440 kts | 326° |
| 2026-04-21 18:50 | 33.39859 | 28.53306 | 36075 ft | 440 kts | 326° |
| 2026-04-21 18:50 | 33.45221 | 28.49765 | 36074 ft | 440 kts | 326° |
| 2026-04-21 18:51 | 33.50537 | 28.46241 | 36076 ft | 440 kts | 326° |
| 2026-04-21 18:51 | 33.55890 | 28.42696 | 36076 ft | 439 kts | 326° |
| 2026-04-21 18:52 | 33.61233 | 28.39157 | 36077 ft | 439 kts | 326° |
| 2026-04-21 18:52 | 33.66574 | 28.35611 | 36072 ft | 438 kts | 326° |
| 2026-04-21 18:53 | 33.71909 | 28.32066 | 36067 ft | 438 kts | 326° |
| 2026-04-21 18:53 | 33.77238 | 28.28521 | 36061 ft | 438 kts | 326° |
| 2026-04-21 18:54 | 33.82564 | 28.24956 | 36067 ft | 438 kts | 326° |
| 2026-04-21 18:54 | 33.87874 | 28.21367 | 36064 ft | 437 kts | 326° |
| 2026-04-21 18:55 | 33.92281 | 28.18379 | 36062 ft | 437 kts | 326° |
| 2026-04-21 18:55 | 33.98482 | 28.14190 | 36067 ft | 437 kts | 326° |
| 2026-04-21 18:56 | 34.03778 | 28.10597 | 36060 ft | 437 kts | 326° |
| 2026-04-21 18:56 | 34.09045 | 28.07028 | 36067 ft | 437 kts | 326° |
| 2026-04-21 18:57 | 34.14348 | 28.03430 | 36050 ft | 437 kts | 326° |
| 2026-04-21 18:57 | 34.19643 | 27.99821 | 36044 ft | 437 kts | 326° |
| 2026-04-21 18:58 | 34.24934 | 27.96207 | 36043 ft | 437 kts | 326° |
| 2026-04-21 18:58 | 34.30230 | 27.92594 | 36044 ft | 437 kts | 326° |
| 2026-04-21 18:59 | 34.35528 | 27.88982 | 36043 ft | 437 kts | 326° |
| 2026-04-21 18:59 | 34.40815 | 27.85361 | 36045 ft | 437 kts | 326° |
| 2026-04-21 19:00 | 34.46103 | 27.81740 | 36044 ft | 436 kts | 326° |
| 2026-04-21 19:00 | 34.51385 | 27.78109 | 36037 ft | 436 kts | 326° |
| 2026-04-21 19:01 | 34.56671 | 27.74474 | 36036 ft | 437 kts | 326° |
| 2026-04-21 19:01 | 34.61949 | 27.70831 | 36035 ft | 436 kts | 326° |
| 2026-04-21 19:02 | 34.67220 | 27.67183 | 36035 ft | 436 kts | 326° |
| 2026-04-21 19:02 | 34.72476 | 27.63526 | 36034 ft | 436 kts | 326° |
| 2026-04-21 19:03 | 34.77704 | 27.59886 | 36037 ft | 436 kts | 326° |
| 2026-04-21 19:03 | 34.82973 | 27.56233 | 36035 ft | 436 kts | 326° |
| 2026-04-21 19:04 | 34.88242 | 27.52575 | 36033 ft | 436 kts | 326° |
| 2026-04-21 19:04 | 34.93512 | 27.48899 | 36035 ft | 436 kts | 326° |
| 2026-04-21 19:05 | 34.98777 | 27.45220 | 36036 ft | 436 kts | 326° |
| 2026-04-21 19:05 | 35.04035 | 27.41542 | 36034 ft | 436 kts | 326° |
| 2026-04-21 19:06 | 35.09301 | 27.37864 | 36036 ft | 436 kts | 326° |
| 2026-04-21 19:06 | 35.14559 | 27.34170 | 36036 ft | 436 kts | 326° |
| 2026-04-21 19:07 | 35.19809 | 27.30475 | 36035 ft | 436 kts | 326° |
| 2026-04-21 19:07 | 35.25066 | 27.26773 | 36033 ft | 436 kts | 326° |
| 2026-04-21 19:08 | 35.30328 | 27.23073 | 36033 ft | 436 kts | 326° |
| 2026-04-21 19:08 | 35.35585 | 27.19367 | 36035 ft | 436 kts | 326° |
| 2026-04-21 19:09 | 35.40840 | 27.15653 | 36047 ft | 436 kts | 326° |
| 2026-04-21 19:09 | 35.46317 | 27.12382 | 36037 ft | 439 kts | 331° |
| 2026-04-21 19:10 | 35.51871 | 27.09263 | 36035 ft | 439 kts | 330° |
| 2026-04-21 19:10 | 35.57421 | 27.06130 | 36045 ft | 439 kts | 330° |
| 2026-04-21 19:11 | 35.62036 | 27.03517 | 36038 ft | 439 kts | 330° |
| 2026-04-21 19:11 | 35.67582 | 27.00388 | 36036 ft | 439 kts | 331° |
| 2026-04-21 19:12 | 35.73134 | 26.97248 | 36036 ft | 438 kts | 330° |
| 2026-04-21 19:12 | 35.78678 | 26.94114 | 36029 ft | 439 kts | 330° |
| 2026-04-21 19:13 | 35.84229 | 26.90974 | 36030 ft | 439 kts | 331° |
| 2026-04-21 19:13 | 35.89775 | 26.87815 | 36029 ft | 439 kts | 330° |
| 2026-04-21 19:14 | 35.95314 | 26.84634 | 36027 ft | 439 kts | 330° |
| 2026-04-21 19:14 | 36.00829 | 26.81472 | 36027 ft | 439 kts | 330° |
| 2026-04-21 19:15 | 36.06376 | 26.78294 | 36031 ft | 440 kts | 330° |
| 2026-04-21 19:15 | 36.11919 | 26.75106 | 36033 ft | 439 kts | 330° |
| 2026-04-21 19:16 | 36.17460 | 26.71910 | 36032 ft | 439 kts | 330° |
| 2026-04-21 19:16 | 36.22994 | 26.68721 | 36030 ft | 439 kts | 330° |
| 2026-04-21 19:17 | 36.31304 | 26.63914 | 36027 ft | 439 kts | 330° |
| 2026-04-21 19:17 | 36.36851 | 26.60699 | 36025 ft | 440 kts | 330° |
| 2026-04-21 19:18 | 36.42397 | 26.57478 | 36025 ft | 440 kts | 330° |
| 2026-04-21 19:18 | 36.47939 | 26.54254 | 36022 ft | 440 kts | 330° |
| 2026-04-21 19:19 | 36.53486 | 26.51031 | 36020 ft | 440 kts | 330° |
| 2026-04-21 19:19 | 36.59026 | 26.47796 | 36018 ft | 440 kts | 330° |
| 2026-04-21 19:20 | 36.64561 | 26.44553 | 36015 ft | 440 kts | 330° |
| 2026-04-21 19:20 | 36.70091 | 26.41310 | 36017 ft | 440 kts | 330° |
| 2026-04-21 19:21 | 36.75626 | 26.38055 | 36016 ft | 440 kts | 330° |
| 2026-04-21 19:21 | 36.81159 | 26.34808 | 36018 ft | 439 kts | 330° |
| 2026-04-21 19:22 | 36.86690 | 26.31556 | 36017 ft | 439 kts | 330° |
| 2026-04-21 19:22 | 36.92218 | 26.28304 | 36013 ft | 439 kts | 330° |
| 2026-04-21 19:23 | 36.97705 | 26.25061 | 36010 ft | 438 kts | 330° |
| 2026-04-21 19:23 | 37.03197 | 26.21771 | 36008 ft | 437 kts | 329° |
| 2026-04-21 19:24 | 37.08649 | 26.18410 | 36008 ft | 437 kts | 329° |
| 2026-04-21 19:24 | 37.14101 | 26.15051 | 36005 ft | 437 kts | 329° |
| 2026-04-21 19:25 | 37.19573 | 26.11710 | 35999 ft | 437 kts | 329° |
| 2026-04-21 19:25 | 37.25037 | 26.08374 | 35999 ft | 437 kts | 329° |
| 2026-04-21 19:26 | 37.30494 | 26.05017 | 35997 ft | 436 kts | 329° |
| 2026-04-21 19:26 | 37.35947 | 26.01655 | 35999 ft | 437 kts | 329° |
| 2026-04-21 19:27 | 37.41398 | 25.98294 | 35999 ft | 436 kts | 329° |
| 2026-04-21 19:27 | 37.46853 | 25.94931 | 35999 ft | 436 kts | 329° |
| 2026-04-21 19:28 | 37.52309 | 25.91565 | 35995 ft | 436 kts | 329° |
| 2026-04-21 19:28 | 37.57754 | 25.88193 | 35997 ft | 436 kts | 329° |
| 2026-04-21 19:29 | 37.63200 | 25.84822 | 35999 ft | 436 kts | 329° |
| 2026-04-21 19:29 | 37.68638 | 25.81444 | 35994 ft | 435 kts | 329° |
| 2026-04-21 19:30 | 37.74064 | 25.78060 | 35996 ft | 435 kts | 329° |
| 2026-04-21 19:30 | 37.79453 | 25.74698 | 35984 ft | 435 kts | 329° |
| 2026-04-21 19:31 | 37.84876 | 25.71311 | 35983 ft | 434 kts | 329° |
| 2026-04-21 19:31 | 37.90288 | 25.67919 | 35983 ft | 434 kts | 329° |
| 2026-04-21 19:32 | 37.95706 | 25.64524 | 35980 ft | 434 kts | 329° |
| 2026-04-21 19:32 | 38.01129 | 25.61132 | 35985 ft | 435 kts | 329° |
| 2026-04-21 19:33 | 38.06546 | 25.57731 | 35997 ft | 435 kts | 329° |
| 2026-04-21 19:33 | 38.09252 | 25.56027 | 36113 ft | 434 kts | 329° |
| 2026-04-21 19:33 | 38.11951 | 25.54325 | 36235 ft | 433 kts | 329° |
| 2026-04-21 19:34 | 38.14644 | 25.52625 | 36360 ft | 432 kts | 329° |
| 2026-04-21 19:34 | 38.17332 | 25.50928 | 36481 ft | 431 kts | 329° |
| 2026-04-21 19:34 | 38.20017 | 25.49234 | 36609 ft | 430 kts | 329° |
| 2026-04-21 19:34 | 38.22697 | 25.47544 | 36733 ft | 429 kts | 329° |
| 2026-04-21 19:35 | 38.25364 | 25.45860 | 36869 ft | 426 kts | 329° |
| 2026-04-21 19:35 | 38.30652 | 25.42507 | 37115 ft | 423 kts | 328° |
| 2026-04-21 19:35 | 38.33283 | 25.40835 | 37236 ft | 422 kts | 328° |
| 2026-04-21 19:36 | 38.35910 | 25.39166 | 37376 ft | 421 kts | 328° |
| 2026-04-21 19:36 | 38.38531 | 25.37499 | 37488 ft | 420 kts | 328° |
| 2026-04-21 19:36 | 38.41142 | 25.35839 | 37612 ft | 419 kts | 328° |
| 2026-04-21 19:36 | 38.43749 | 25.34181 | 37735 ft | 419 kts | 328° |
| 2026-04-21 19:37 | 38.46356 | 25.32522 | 37894 ft | 417 kts | 328° |
| 2026-04-21 19:37 | 38.51569 | 25.29206 | 37978 ft | 421 kts | 328° |
| 2026-04-21 19:38 | 38.56826 | 25.25839 | 37976 ft | 425 kts | 328° |
| 2026-04-21 19:38 | 38.61231 | 25.23023 | 37971 ft | 427 kts | 328° |
| 2026-04-21 19:39 | 38.67406 | 25.19070 | 37957 ft | 427 kts | 328° |
| 2026-04-21 19:39 | 38.72728 | 25.15656 | 37968 ft | 428 kts | 328° |
| 2026-04-21 19:40 | 38.78047 | 25.12238 | 37964 ft | 428 kts | 328° |
| 2026-04-21 19:40 | 38.83364 | 25.08806 | 37969 ft | 427 kts | 328° |
| 2026-04-21 19:41 | 38.88681 | 25.05379 | 37978 ft | 427 kts | 328° |
| 2026-04-21 19:41 | 38.93999 | 25.01954 | 37978 ft | 428 kts | 328° |
| 2026-04-21 19:42 | 38.99314 | 24.98519 | 37967 ft | 427 kts | 328° |
| 2026-04-21 19:42 | 39.04624 | 24.95077 | 37963 ft | 427 kts | 328° |
| 2026-04-21 19:43 | 39.09924 | 24.91624 | 37968 ft | 427 kts | 328° |
| 2026-04-21 19:43 | 39.15263 | 24.88254 | 37969 ft | 428 kts | 329° |
| 2026-04-21 19:44 | 39.20635 | 24.84973 | 37960 ft | 427 kts | 329° |
| 2026-04-21 19:44 | 39.26002 | 24.81663 | 37966 ft | 427 kts | 329° |
| 2026-04-21 19:45 | 39.31362 | 24.78334 | 37952 ft | 428 kts | 329° |
| 2026-04-21 19:45 | 39.36716 | 24.75000 | 37963 ft | 427 kts | 329° |
| 2026-04-21 19:46 | 39.42063 | 24.71662 | 37953 ft | 427 kts | 329° |
| 2026-04-21 19:46 | 39.47377 | 24.68335 | 37949 ft | 427 kts | 329° |
| 2026-04-21 19:47 | 39.52736 | 24.64979 | 37957 ft | 427 kts | 329° |
| 2026-04-21 19:47 | 39.58088 | 24.61618 | 37945 ft | 427 kts | 329° |
| 2026-04-21 19:48 | 39.63438 | 24.58254 | 37946 ft | 428 kts | 329° |
| 2026-04-21 19:48 | 39.68794 | 24.54886 | 37948 ft | 428 kts | 329° |
| 2026-04-21 19:49 | 39.74144 | 24.51512 | 37942 ft | 427 kts | 329° |
| 2026-04-21 19:49 | 39.79495 | 24.48132 | 37948 ft | 428 kts | 329° |
| 2026-04-21 19:50 | 39.83941 | 24.45317 | 37948 ft | 428 kts | 329° |
| 2026-04-21 19:50 | 39.90206 | 24.41356 | 37948 ft | 428 kts | 329° |
| 2026-04-21 19:51 | 39.95566 | 24.37961 | 37947 ft | 429 kts | 328° |
| 2026-04-21 19:51 | 40.00929 | 24.34550 | 37954 ft | 428 kts | 328° |
| 2026-04-21 19:52 | 40.06255 | 24.31156 | 37961 ft | 428 kts | 328° |
| 2026-04-21 19:52 | 40.11613 | 24.27734 | 37954 ft | 428 kts | 328° |
| 2026-04-21 19:53 | 40.16968 | 24.24306 | 37957 ft | 429 kts | 328° |
| 2026-04-21 19:53 | 40.22328 | 24.20871 | 37965 ft | 429 kts | 328° |
| 2026-04-21 19:54 | 40.27683 | 24.17433 | 37958 ft | 429 kts | 328° |
| 2026-04-21 19:54 | 40.33040 | 24.13995 | 37966 ft | 429 kts | 328° |
| 2026-04-21 19:55 | 40.38396 | 24.10551 | 37958 ft | 429 kts | 328° |
| 2026-04-21 19:55 | 40.43753 | 24.07097 | 37969 ft | 429 kts | 328° |
| 2026-04-21 19:56 | 40.49109 | 24.03636 | 37970 ft | 428 kts | 328° |
| 2026-04-21 19:56 | 40.54426 | 24.00193 | 37979 ft | 429 kts | 328° |
| 2026-04-21 19:57 | 40.59779 | 23.96723 | 37985 ft | 429 kts | 328° |
| 2026-04-21 19:57 | 40.65149 | 23.93303 | 37988 ft | 429 kts | 329° |
| 2026-04-21 19:58 | 40.69675 | 23.90487 | 37988 ft | 429 kts | 329° |
| 2026-04-21 19:58 | 40.75075 | 23.87125 | 37989 ft | 429 kts | 329° |
| 2026-04-21 19:59 | 40.80454 | 23.83741 | 37986 ft | 428 kts | 329° |
| 2026-04-21 19:59 | 40.85825 | 23.80337 | 37990 ft | 428 kts | 329° |
| 2026-04-21 20:00 | 40.91189 | 23.76927 | 37990 ft | 428 kts | 329° |
| 2026-04-21 20:00 | 40.96559 | 23.73530 | 37994 ft | 428 kts | 329° |
| 2026-04-21 20:01 | 41.01924 | 23.70130 | 37997 ft | 428 kts | 329° |
| 2026-04-21 20:01 | 41.07255 | 23.66745 | 37999 ft | 428 kts | 329° |
| 2026-04-21 20:02 | 41.12623 | 23.63332 | 38000 ft | 428 kts | 329° |
| 2026-04-21 20:02 | 41.17982 | 23.59909 | 38002 ft | 427 kts | 329° |
| 2026-04-21 20:03 | 41.23332 | 23.56473 | 38002 ft | 427 kts | 329° |
| 2026-04-21 20:03 | 41.28684 | 23.53037 | 38005 ft | 427 kts | 329° |
| 2026-04-21 20:04 | 41.34036 | 23.49598 | 38004 ft | 427 kts | 329° |
| 2026-04-21 20:04 | 41.39396 | 23.46143 | 38010 ft | 428 kts | 329° |
| 2026-04-21 20:05 | 41.44747 | 23.42679 | 38013 ft | 427 kts | 328° |
| 2026-04-21 20:05 | 41.50086 | 23.39194 | 38017 ft | 427 kts | 328° |
| 2026-04-21 20:06 | 41.55423 | 23.35702 | 38019 ft | 427 kts | 328° |
| 2026-04-21 20:06 | 41.60756 | 23.32214 | 38024 ft | 426 kts | 328° |
| 2026-04-21 20:07 | 41.66082 | 23.28728 | 38026 ft | 426 kts | 328° |
| 2026-04-21 20:07 | 41.71404 | 23.25236 | 38026 ft | 426 kts | 328° |
| 2026-04-21 20:08 | 41.76719 | 23.21740 | 38026 ft | 426 kts | 328° |
| 2026-04-21 20:08 | 41.82041 | 23.18242 | 38029 ft | 426 kts | 328° |
| 2026-04-21 20:09 | 41.87357 | 23.14733 | 38029 ft | 426 kts | 328° |
| 2026-04-21 20:09 | 41.92670 | 23.11216 | 38035 ft | 425 kts | 328° |
| 2026-04-21 20:10 | 41.97972 | 23.07696 | 38032 ft | 425 kts | 328° |
| 2026-04-21 20:10 | 42.03279 | 23.04171 | 38035 ft | 425 kts | 328° |
| 2026-04-21 20:11 | 42.08586 | 23.00644 | 38040 ft | 425 kts | 328° |
| 2026-04-21 20:11 | 42.13856 | 22.97126 | 38049 ft | 425 kts | 328° |
| 2026-04-21 20:12 | 42.19162 | 22.93591 | 38056 ft | 425 kts | 328° |
| 2026-04-21 20:12 | 42.24461 | 22.90045 | 38059 ft | 425 kts | 328° |
| 2026-04-21 20:13 | 42.29759 | 22.86491 | 38063 ft | 425 kts | 328° |
| 2026-04-21 20:13 | 42.35061 | 22.82935 | 38064 ft | 425 kts | 328° |
| 2026-04-21 20:14 | 42.40356 | 22.79376 | 38062 ft | 425 kts | 328° |
| 2026-04-21 20:14 | 42.45644 | 22.75810 | 38060 ft | 425 kts | 328° |
| 2026-04-21 20:15 | 42.50936 | 22.72243 | 38057 ft | 425 kts | 328° |
| 2026-04-21 20:15 | 42.56218 | 22.68661 | 38057 ft | 425 kts | 328° |
| 2026-04-21 20:16 | 42.61506 | 22.65075 | 38056 ft | 425 kts | 328° |
| 2026-04-21 20:16 | 42.66798 | 22.61488 | 38055 ft | 425 kts | 328° |
| 2026-04-21 20:17 | 42.72096 | 22.57888 | 38057 ft | 425 kts | 328° |
| 2026-04-21 20:17 | 42.77383 | 22.54287 | 38056 ft | 425 kts | 328° |
| 2026-04-21 20:18 | 42.81778 | 22.51281 | 38057 ft | 425 kts | 328° |
| 2026-04-21 20:18 | 42.87966 | 22.47057 | 38058 ft | 426 kts | 328° |
| 2026-04-21 20:19 | 42.93235 | 22.43482 | 38061 ft | 426 kts | 328° |
| 2026-04-21 20:19 | 42.98536 | 22.39876 | 38059 ft | 425 kts | 328° |
| 2026-04-21 20:20 | 43.03831 | 22.36257 | 38061 ft | 426 kts | 328° |
| 2026-04-21 20:20 | 43.09125 | 22.32632 | 38054 ft | 425 kts | 328° |
| 2026-04-21 20:21 | 43.14411 | 22.29005 | 38047 ft | 425 kts | 328° |
| 2026-04-21 20:21 | 43.19703 | 22.25371 | 38046 ft | 426 kts | 328° |
| 2026-04-21 20:22 | 43.25012 | 22.21718 | 38055 ft | 426 kts | 328° |
| 2026-04-21 20:22 | 43.32964 | 22.16231 | 38057 ft | 427 kts | 328° |
| 2026-04-21 20:23 | 43.38269 | 22.12555 | 38058 ft | 427 kts | 328° |
| 2026-04-21 20:23 | 43.43583 | 22.08880 | 38059 ft | 428 kts | 328° |
| 2026-04-21 20:24 | 43.48898 | 22.05200 | 38059 ft | 428 kts | 328° |
| 2026-04-21 20:24 | 43.54210 | 22.01511 | 38060 ft | 428 kts | 328° |
| 2026-04-21 20:25 | 43.59524 | 21.97817 | 38059 ft | 427 kts | 327° |
| 2026-04-21 20:25 | 43.64795 | 21.94136 | 38061 ft | 427 kts | 327° |
| 2026-04-21 20:26 | 43.70103 | 21.90421 | 38062 ft | 427 kts | 327° |
| 2026-04-21 20:26 | 43.75402 | 21.86703 | 38062 ft | 427 kts | 327° |
| 2026-04-21 20:27 | 43.80706 | 21.82980 | 38061 ft | 427 kts | 327° |
| 2026-04-21 20:27 | 43.86013 | 21.79250 | 38062 ft | 427 kts | 327° |
| 2026-04-21 20:28 | 43.91314 | 21.75502 | 38067 ft | 427 kts | 327° |
| 2026-04-21 20:28 | 43.96611 | 21.71751 | 38072 ft | 428 kts | 327° |
| 2026-04-21 20:29 | 44.01917 | 21.67992 | 38076 ft | 428 kts | 327° |
| 2026-04-21 20:29 | 44.07185 | 21.64254 | 38072 ft | 428 kts | 327° |
| 2026-04-21 20:30 | 44.12481 | 21.60488 | 38070 ft | 428 kts | 327° |
| 2026-04-21 20:30 | 44.17811 | 21.56680 | 38068 ft | 428 kts | 327° |
| 2026-04-21 20:31 | 44.23072 | 21.52934 | 38064 ft | 428 kts | 328° |
| 2026-04-21 20:31 | 44.28379 | 21.49149 | 38064 ft | 428 kts | 327° |
| 2026-04-21 20:32 | 44.33682 | 21.45349 | 38064 ft | 429 kts | 327° |
| 2026-04-21 20:32 | 44.38982 | 21.41534 | 38067 ft | 429 kts | 327° |
| 2026-04-21 20:33 | 44.44281 | 21.37726 | 38070 ft | 428 kts | 327° |
| 2026-04-21 20:33 | 44.49575 | 21.33910 | 38069 ft | 428 kts | 327° |
| 2026-04-21 20:34 | 44.54871 | 21.30085 | 38068 ft | 428 kts | 327° |
| 2026-04-21 20:34 | 44.60167 | 21.26253 | 38069 ft | 428 kts | 327° |
| 2026-04-21 20:35 | 44.65461 | 21.22404 | 38072 ft | 429 kts | 327° |
| 2026-04-21 20:35 | 44.70766 | 21.18547 | 38077 ft | 430 kts | 328° |
| 2026-04-21 20:36 | 44.76075 | 21.14688 | 38078 ft | 429 kts | 328° |
| 2026-04-21 20:36 | 44.81376 | 21.10813 | 38078 ft | 430 kts | 328° |
| 2026-04-21 20:37 | 44.86688 | 21.06914 | 38080 ft | 430 kts | 328° |
| 2026-04-21 20:37 | 44.91996 | 21.03023 | 38078 ft | 430 kts | 328° |
| 2026-04-21 20:38 | 44.97312 | 20.99126 | 38079 ft | 430 kts | 328° |
| 2026-04-21 20:38 | 45.02596 | 20.95242 | 38080 ft | 431 kts | 328° |
| 2026-04-21 20:39 | 45.07902 | 20.91326 | 38079 ft | 431 kts | 328° |
| 2026-04-21 20:39 | 45.13219 | 20.87389 | 38080 ft | 431 kts | 328° |
| 2026-04-21 20:40 | 45.18527 | 20.83452 | 38080 ft | 431 kts | 328° |
| 2026-04-21 20:40 | 45.23842 | 20.79506 | 38078 ft | 431 kts | 328° |
| 2026-04-21 20:41 | 45.29163 | 20.75558 | 38080 ft | 432 kts | 328° |
| 2026-04-21 20:41 | 45.34486 | 20.71587 | 38083 ft | 432 kts | 328° |
| 2026-04-21 20:42 | 45.39811 | 20.67603 | 38082 ft | 433 kts | 328° |
| 2026-04-21 20:42 | 45.45147 | 20.63615 | 38080 ft | 433 kts | 328° |
| 2026-04-21 20:43 | 45.49583 | 20.60281 | 38079 ft | 434 kts | 328° |
| 2026-04-21 20:43 | 45.54918 | 20.56256 | 38086 ft | 434 kts | 328° |
| 2026-04-21 20:44 | 45.60259 | 20.52231 | 38089 ft | 434 kts | 328° |
| 2026-04-21 20:44 | 45.65603 | 20.48200 | 38088 ft | 435 kts | 328° |
| 2026-04-21 20:45 | 45.70955 | 20.44161 | 38095 ft | 435 kts | 328° |
| 2026-04-21 20:45 | 45.76303 | 20.40110 | 38095 ft | 435 kts | 328° |
| 2026-04-21 20:46 | 45.81647 | 20.36040 | 38099 ft | 435 kts | 328° |
| 2026-04-21 20:46 | 45.86994 | 20.31971 | 38103 ft | 435 kts | 328° |
| 2026-04-21 20:47 | 45.92339 | 20.27893 | 38104 ft | 435 kts | 328° |
| 2026-04-21 20:47 | 45.97693 | 20.23795 | 38107 ft | 436 kts | 328° |
| 2026-04-21 20:48 | 46.03048 | 20.19681 | 38108 ft | 436 kts | 328° |
| 2026-04-21 20:48 | 46.08416 | 20.15559 | 38108 ft | 437 kts | 328° |
| 2026-04-21 20:49 | 46.13738 | 20.11459 | 38115 ft | 437 kts | 328° |
| 2026-04-21 20:49 | 46.19093 | 20.07292 | 38119 ft | 436 kts | 328° |
| 2026-04-21 20:50 | 46.24399 | 20.03040 | 38119 ft | 436 kts | 327° |
| 2026-04-21 20:50 | 46.29707 | 19.98754 | 38121 ft | 436 kts | 327° |
| 2026-04-21 20:51 | 46.35003 | 19.94474 | 38123 ft | 436 kts | 327° |
| 2026-04-21 20:51 | 46.40307 | 19.90192 | 38123 ft | 436 kts | 327° |
| 2026-04-21 20:52 | 46.45610 | 19.85911 | 38120 ft | 437 kts | 328° |
| 2026-04-21 20:52 | 46.50919 | 19.81608 | 38120 ft | 437 kts | 328° |
| 2026-04-21 20:53 | 46.56230 | 19.77301 | 38124 ft | 437 kts | 328° |
| 2026-04-21 20:53 | 46.61547 | 19.72981 | 38128 ft | 438 kts | 328° |
| 2026-04-21 20:54 | 46.66866 | 19.68644 | 38132 ft | 438 kts | 328° |
| 2026-04-21 20:54 | 46.72178 | 19.64286 | 38146 ft | 439 kts | 328° |
| 2026-04-21 20:55 | 46.77500 | 19.59916 | 38143 ft | 439 kts | 328° |
| 2026-04-21 20:55 | 46.82831 | 19.55551 | 38141 ft | 440 kts | 328° |
| 2026-04-21 20:56 | 46.88173 | 19.51164 | 38150 ft | 440 kts | 328° |
| 2026-04-21 20:56 | 46.93501 | 19.46757 | 38134 ft | 440 kts | 328° |
| 2026-04-21 20:57 | 46.98808 | 19.42359 | 38147 ft | 441 kts | 328° |
| 2026-04-21 20:57 | 47.04173 | 19.37938 | 38150 ft | 442 kts | 328° |
| 2026-04-21 20:58 | 47.09539 | 19.33505 | 38150 ft | 443 kts | 328° |
| 2026-04-21 20:58 | 47.14907 | 19.29031 | 38155 ft | 443 kts | 328° |
| 2026-04-21 20:59 | 47.20263 | 19.24545 | 38157 ft | 443 kts | 328° |
| 2026-04-21 20:59 | 47.25617 | 19.20052 | 38149 ft | 443 kts | 328° |
| 2026-04-21 21:00 | 47.30921 | 19.15425 | 38157 ft | 442 kts | 321° |
| 2026-04-21 21:00 | 47.35125 | 19.08961 | 38156 ft | 438 kts | 302° |
| 2026-04-21 21:01 | 47.37859 | 19.00952 | 38157 ft | 437 kts | 294° |
| 2026-04-21 21:01 | 47.40410 | 18.92790 | 38154 ft | 438 kts | 294° |
| 2026-04-21 21:02 | 47.42932 | 18.84738 | 38139 ft | 430 kts | 295° |
| 2026-04-21 21:02 | 47.45416 | 18.76757 | 38132 ft | 426 kts | 294° |
| 2026-04-21 21:03 | 47.47886 | 18.68772 | 38016 ft | 428 kts | 294° |
| 2026-04-21 21:03 | 47.49121 | 18.64778 | 37513 ft | 427 kts | 294° |
| 2026-04-21 21:03 | 47.50353 | 18.60791 | 36837 ft | 425 kts | 294° |
| 2026-04-21 21:04 | 47.51578 | 18.56813 | 36052 ft | 426 kts | 294° |
| 2026-04-21 21:04 | 47.52803 | 18.52817 | 35214 ft | 428 kts | 294° |
| 2026-04-21 21:04 | 47.53997 | 18.48778 | 34368 ft | 430 kts | 290° |
| 2026-04-21 21:04 | 47.54936 | 18.44559 | 33395 ft | 433 kts | 288° |
| 2026-04-21 21:05 | 47.55852 | 18.40283 | 32336 ft | 438 kts | 288° |
| 2026-04-21 21:05 | 47.56772 | 18.35963 | 31272 ft | 440 kts | 288° |
| 2026-04-21 21:05 | 47.57694 | 18.31635 | 30142 ft | 442 kts | 287° |
| 2026-04-21 21:05 | 47.58621 | 18.27281 | 28966 ft | 443 kts | 287° |
| 2026-04-21 21:06 | 47.59539 | 18.22955 | 27781 ft | 437 kts | 287° |
| 2026-04-21 21:06 | 47.60440 | 18.18692 | 26622 ft | 429 kts | 288° |
| 2026-04-21 21:06 | 47.61323 | 18.14512 | 25496 ft | 423 kts | 288° |
| 2026-04-21 21:06 | 47.62204 | 18.10326 | 24458 ft | 426 kts | 288° |
| 2026-04-21 21:07 | 47.63082 | 18.06151 | 23622 ft | 423 kts | 288° |
| 2026-04-21 21:07 | 47.63955 | 18.01993 | 22785 ft | 421 kts | 288° |
| 2026-04-21 21:07 | 47.64821 | 17.97861 | 21993 ft | 418 kts | 288° |
| 2026-04-21 21:07 | 47.65677 | 17.93761 | 21241 ft | 415 kts | 288° |
| 2026-04-21 21:08 | 47.66527 | 17.89680 | 20503 ft | 412 kts | 288° |
| 2026-04-21 21:08 | 47.67369 | 17.85633 | 19769 ft | 409 kts | 288° |
| 2026-04-21 21:08 | 47.68204 | 17.81611 | 19056 ft | 406 kts | 288° |
| 2026-04-21 21:08 | 47.69029 | 17.77623 | 18380 ft | 403 kts | 288° |
| 2026-04-21 21:09 | 47.69845 | 17.73666 | 17721 ft | 399 kts | 288° |
| 2026-04-21 21:09 | 47.70652 | 17.69737 | 17089 ft | 396 kts | 288° |
| 2026-04-21 21:09 | 47.71448 | 17.65848 | 16494 ft | 392 kts | 288° |
| 2026-04-21 21:09 | 47.72236 | 17.61997 | 15914 ft | 388 kts | 288° |
| 2026-04-21 21:10 | 47.73016 | 17.58192 | 15357 ft | 383 kts | 288° |
| 2026-04-21 21:10 | 47.73787 | 17.54430 | 14794 ft | 378 kts | 288° |
| 2026-04-21 21:10 | 47.74674 | 17.50786 | 14245 ft | 372 kts | 295° |
| 2026-04-21 21:10 | 47.75932 | 17.47441 | 13571 ft | 371 kts | 305° |
| 2026-04-21 21:11 | 47.77395 | 17.44461 | 13351 ft | 348 kts | 307° |
| 2026-04-21 21:11 | 47.78776 | 17.41627 | 13136 ft | 321 kts | 306° |
| 2026-04-21 21:11 | 47.80017 | 17.39049 | 12795 ft | 302 kts | 306° |
| 2026-04-21 21:11 | 47.81220 | 17.36535 | 12440 ft | 288 kts | 306° |
| 2026-04-21 21:12 | 47.82339 | 17.34196 | 12095 ft | 275 kts | 306° |
| 2026-04-21 21:12 | 47.83422 | 17.31934 | 11745 ft | 262 kts | 306° |
| 2026-04-21 21:12 | 47.84461 | 17.29766 | 11394 ft | 252 kts | 306° |
| 2026-04-21 21:12 | 47.85471 | 17.27664 | 11048 ft | 248 kts | 307° |
| 2026-04-21 21:13 | 47.86477 | 17.25568 | 10695 ft | 249 kts | 306° |
| 2026-04-21 21:13 | 47.87484 | 17.23464 | 10343 ft | 250 kts | 307° |
| 2026-04-21 21:13 | 47.88492 | 17.21352 | 9992 ft | 251 kts | 306° |
| 2026-04-21 21:13 | 47.89501 | 17.19238 | 9641 ft | 250 kts | 307° |
| 2026-04-21 21:14 | 47.90511 | 17.17122 | 9288 ft | 250 kts | 307° |
| 2026-04-21 21:14 | 47.91522 | 17.15010 | 8936 ft | 250 kts | 307° |
| 2026-04-21 21:14 | 47.92500 | 17.12872 | 8584 ft | 250 kts | 301° |
| 2026-04-21 21:14 | 47.93287 | 17.10562 | 8234 ft | 250 kts | 298° |
| 2026-04-21 21:15 | 47.94061 | 17.08254 | 7881 ft | 248 kts | 298° |
| 2026-04-21 21:15 | 47.94832 | 17.05953 | 7533 ft | 247 kts | 298° |
| 2026-04-21 21:15 | 47.95598 | 17.03695 | 7174 ft | 239 kts | 301° |
| 2026-04-21 21:15 | 47.96385 | 17.01573 | 6895 ft | 227 kts | 301° |
| 2026-04-21 21:16 | 47.97092 | 16.99525 | 6626 ft | 218 kts | 300° |
| 2026-04-21 21:16 | 47.97751 | 16.97545 | 6346 ft | 210 kts | 299° |
| 2026-04-21 21:16 | 47.98386 | 16.95627 | 6078 ft | 203 kts | 300° |
| 2026-04-21 21:16 | 47.99007 | 16.93754 | 5814 ft | 200 kts | 300° |
| 2026-04-21 21:17 | 47.99620 | 16.91902 | 5516 ft | 199 kts | 300° |
| 2026-04-21 21:17 | 48.00232 | 16.90054 | 5275 ft | 198 kts | 300° |
| 2026-04-21 21:17 | 48.00839 | 16.88217 | 5034 ft | 197 kts | 300° |
| 2026-04-21 21:17 | 48.01444 | 16.86387 | 4776 ft | 198 kts | 300° |
| 2026-04-21 21:18 | 48.02054 | 16.84539 | 4503 ft | 198 kts | 300° |
| 2026-04-21 21:18 | 48.02665 | 16.82687 | 4236 ft | 199 kts | 301° |
| 2026-04-21 21:18 | 48.03277 | 16.80832 | 3971 ft | 199 kts | 300° |
| 2026-04-21 21:18 | 48.03888 | 16.78971 | 3709 ft | 200 kts | 300° |
| 2026-04-21 21:19 | 48.04501 | 16.77107 | 3443 ft | 200 kts | 301° |
| 2026-04-21 21:19 | 48.05115 | 16.75238 | 3179 ft | 201 kts | 301° |
| 2026-04-21 21:19 | 48.05726 | 16.73377 | 2936 ft | 198 kts | 301° |
| 2026-04-21 21:19 | 48.06331 | 16.71537 | 2645 ft | 196 kts | 298° |
| 2026-04-21 21:20 | 48.06928 | 16.69719 | 2383 ft | 193 kts | 296° |
| 2026-04-21 21:20 | 48.07504 | 16.67962 | 2133 ft | 182 kts | 294° |
| 2026-04-21 21:20 | 48.08034 | 16.66349 | 1926 ft | 165 kts | 293° |
| 2026-04-21 21:20 | 48.08507 | 16.64885 | 1716 ft | 147 kts | 296° |
| 2026-04-21 21:21 | 48.08926 | 16.63577 | 1513 ft | 134 kts | 297° |
| 2026-04-21 21:21 | 48.09341 | 16.62361 | 1309 ft | 129 kts | 297° |
| 2026-04-21 21:21 | 48.09724 | 16.61161 | 1132 ft | 127 kts | 295° |
| 2026-04-21 21:21 | 48.10108 | 16.59976 | 983 ft | 127 kts | 296° |
| 2026-04-21 21:22 | 48.10498 | 16.58797 | 824 ft | 127 kts | 296° |
| 2026-04-21 21:22 | 48.10887 | 16.57615 | 667 ft | 127 kts | 296° |
| 2026-04-21 21:22 | 48.11249 | 16.56509 | 615 ft | 101 kts | 296° |
| 2026-04-21 21:22 | 48.11484 | 16.55789 | 615 ft | 58 kts | 296° |
| 2026-04-21 21:23 | 48.11628 | 16.55398 | 612 ft | 31 kts | 309° |
| 2026-04-21 21:23 | 48.11761 | 16.55201 | 613 ft | 18 kts | 317° |
| 2026-04-21 21:23 | 48.11855 | 16.55144 | 609 ft | 9 kts | 8° |
| 2026-04-21 21:23 | 48.11878 | 16.55212 | 614 ft | 7 kts | 97° |
| 2026-04-21 21:24 | 48.11859 | 16.55279 | 609 ft | 7 kts | 116° |
| 2026-04-21 21:24 | 48.11829 | 16.55373 | 615 ft | 12 kts | 116° |
| 2026-04-21 21:24 | 48.11793 | 16.55484 | 609 ft | 11 kts | 116° |
| 2026-04-21 21:24 | 48.11760 | 16.55586 | 616 ft | 10 kts | 116° |
| 2026-04-21 21:25 | 48.11713 | 16.55729 | 614 ft | 19 kts | 116° |
| 2026-04-21 21:25 | 48.11655 | 16.55906 | 614 ft | 19 kts | 115° |
| 2026-04-21 21:25 | 48.11595 | 16.56090 | 609 ft | 20 kts | 116° |
| 2026-04-21 21:25 | 48.11530 | 16.56290 | 609 ft | 22 kts | 116° |
| 2026-04-21 21:26 | 48.11467 | 16.56485 | 609 ft | 19 kts | 116° |
| 2026-04-21 21:26 | 48.11415 | 16.56646 | 618 ft | 14 kts | 115° |
| 2026-04-21 21:26 | 48.11384 | 16.56751 | 615 ft | 9 kts | 101° |
| 2026-04-21 21:26 | 48.11408 | 16.56828 | 609 ft | 8 kts | 36° |
| 2026-04-21 21:27 | 48.11455 | 16.56864 | 609 ft | 7 kts | 25° |
| 2026-04-21 21:27 | 48.11496 | 16.56893 | 613 ft | 6 kts | 25° |
| 2026-04-21 21:27 | 48.11535 | 16.56915 | 615 ft | 6 kts | 9° |
| 2026-04-21 21:27 | 48.11572 | 16.56902 | 609 ft | 5 kts | 330° |
| 2026-04-21 21:28 | 48.11602 | 16.56850 | 617 ft | 12 kts | 296° |
| 2026-04-21 21:28 | 48.11633 | 16.56804 | 613 ft | 5 kts | 8° |
| 2026-04-21 21:28 | 48.11686 | 16.56842 | 609 ft | 2 kts | 26° |
| 2026-04-21 21:29 | 48.11691 | 16.56845 | 609 ft | 0 kts | 26° |